Bluegrove, Texas
Current Conditions -  °F | °C
As of 12:35 AM on Wednesday 26 Nov 2014 (Local Time) from KCWC Reporting Station
Clear Clear  
Wind Chill: 39°   Ceiling: Unl
Heat Index: 44°   Visibility: 10mi
Dew Point: 28°   Wind: 7mph
Humidity: 55%   Direction: 190°S
Pressure: 30"   Gusts: NA
Location:  33.67°N, 98.23°W
Report Text: KCWC 260635Z AUTO 19006KT 10SM CLR 06/M02 A3000 RMK AO2 T00641020
Loading
Personal Weather Stations






























Interactive Weather Map New forecast layout! Learn more

10-Day Weather Forecast

Advertisements
Track Severe Weather on mobile